sensor_id;sensor_type;location;lat;lon;timestamp;P1;durP1;ratioP1;P2;durP2;ratioP2
10212;SDS011;5150;51.400;6.692;2022-10-16T00:03:07;10.23;;;4.00;;
10212;SDS011;5150;51.400;6.692;2022-10-16T00:06:30;5.90;;;3.80;;
10212;SDS011;5150;51.400;6.692;2022-10-16T00:09:55;8.40;;;3.50;;
10212;SDS011;5150;51.400;6.692;2022-10-16T00:13:18;10.00;;;3.70;;
10212;SDS011;5150;51.400;6.692;2022-10-16T00:16:41;9.10;;;4.53;;
10212;SDS011;5150;51.400;6.692;2022-10-16T00:20:05;9.88;;;3.25;;
10212;SDS011;5150;51.400;6.692;2022-10-16T00:23:29;10.13;;;3.75;;
10212;SDS011;5150;51.400;6.692;2022-10-16T00:26:54;7.93;;;4.00;;
10212;SDS011;5150;51.400;6.692;2022-10-16T00:30:17;11.30;;;3.80;;
10212;SDS011;5150;51.400;6.692;2022-10-16T00:33:40;7.78;;;3.20;;
10212;SDS011;5150;51.400;6.692;2022-10-16T00:37:03;7.20;;;3.13;;
10212;SDS011;5150;51.400;6.692;2022-10-16T00:40:26;8.73;;;3.53;;
10212;SDS011;5150;51.400;6.692;2022-10-16T00:43:53;6.72;;;3.13;;
10212;SDS011;5150;51.400;6.692;2022-10-16T00:47:18;7.10;;;3.28;;
10212;SDS011;5150;51.400;6.692;2022-10-16T00:50:44;9.50;;;3.50;;
10212;SDS011;5150;51.400;6.692;2022-10-16T00:54:09;6.10;;;4.05;;
10212;SDS011;5150;51.400;6.692;2022-10-16T00:57:34;6.97;;;3.67;;
10212;SDS011;5150;51.400;6.692;2022-10-16T01:00:58;11.93;;;3.58;;
10212;SDS011;5150;51.400;6.692;2022-10-16T01:04:22;8.32;;;3.60;;
10212;SDS011;5150;51.400;6.692;2022-10-16T01:07:48;7.30;;;3.88;;
10212;SDS011;5150;51.400;6.692;2022-10-16T01:11:21;6.82;;;2.65;;
10212;SDS011;5150;51.400;6.692;2022-10-16T01:14:48;12.68;;;2.70;;
10212;SDS011;5150;51.400;6.692;2022-10-16T01:18:18;6.20;;;3.47;;
10212;SDS011;5150;51.400;6.692;2022-10-16T01:21:48;7.93;;;2.85;;
10212;SDS011;5150;51.400;6.692;2022-10-16T01:25:17;8.40;;;3.55;;
10212;SDS011;5150;51.400;6.692;2022-10-16T01:28:47;7.13;;;2.90;;
10212;SDS011;5150;51.400;6.692;2022-10-16T01:32:16;12.63;;;4.20;;
10212;SDS011;5150;51.400;6.692;2022-10-16T01:35:42;7.28;;;3.10;;
10212;SDS011;5150;51.400;6.692;2022-10-16T01:39:09;7.43;;;2.97;;
10212;SDS011;5150;51.400;6.692;2022-10-16T01:42:34;4.95;;;3.20;;
10212;SDS011;5150;51.400;6.692;2022-10-16T01:46:02;6.03;;;3.20;;
10212;SDS011;5150;51.400;6.692;2022-10-16T01:49:26;8.18;;;3.25;;
10212;SDS011;5150;51.400;6.692;2022-10-16T01:52:53;5.40;;;2.95;;
10212;SDS011;5150;51.400;6.692;2022-10-16T01:56:19;8.90;;;3.00;;
10212;SDS011;5150;51.400;6.692;2022-10-16T01:59:45;10.02;;;3.83;;
10212;SDS011;5150;51.400;6.692;2022-10-16T02:03:12;6.32;;;3.15;;
10212;SDS011;5150;51.400;6.692;2022-10-16T02:06:38;6.18;;;3.55;;
10212;SDS011;5150;51.400;6.692;2022-10-16T02:10:01;4.35;;;2.85;;
10212;SDS011;5150;51.400;6.692;2022-10-16T02:13:26;6.47;;;3.35;;
10212;SDS011;5150;51.400;6.692;2022-10-16T02:16:53;5.03;;;3.03;;
10212;SDS011;5150;51.400;6.692;2022-10-16T02:20:18;7.95;;;3.20;;
10212;SDS011;5150;51.400;6.692;2022-10-16T02:23:48;6.60;;;2.70;;
10212;SDS011;5150;51.400;6.692;2022-10-16T02:27:19;7.13;;;3.28;;
10212;SDS011;5150;51.400;6.692;2022-10-16T02:30:49;5.28;;;3.17;;
10212;SDS011;5150;51.400;6.692;2022-10-16T02:34:14;5.32;;;3.10;;
10212;SDS011;5150;51.400;6.692;2022-10-16T02:37:40;5.72;;;2.67;;
10212;SDS011;5150;51.400;6.692;2022-10-16T02:41:04;6.18;;;2.70;;
10212;SDS011;5150;51.400;6.692;2022-10-16T02:44:28;10.32;;;3.17;;
10212;SDS011;5150;51.400;6.692;2022-10-16T02:47:51;7.05;;;2.83;;
10212;SDS011;5150;51.400;6.692;2022-10-16T02:51:14;6.32;;;2.90;;
10212;SDS011;5150;51.400;6.692;2022-10-16T02:54:38;10.13;;;4.25;;
10212;SDS011;5150;51.400;6.692;2022-10-16T02:58:01;5.32;;;2.53;;
10212;SDS011;5150;51.400;6.692;2022-10-16T03:01:24;5.50;;;3.08;;
10212;SDS011;5150;51.400;6.692;2022-10-16T03:04:47;8.70;;;2.97;;
10212;SDS011;5150;51.400;6.692;2022-10-16T03:08:10;4.38;;;2.30;;
10212;SDS011;5150;51.400;6.692;2022-10-16T03:11:34;6.07;;;2.58;;
10212;SDS011;5150;51.400;6.692;2022-10-16T03:14:57;11.82;;;3.15;;
10212;SDS011;5150;51.400;6.692;2022-10-16T03:18:20;7.55;;;2.80;;
10212;SDS011;5150;51.400;6.692;2022-10-16T03:21:43;5.57;;;2.42;;
10212;SDS011;5150;51.400;6.692;2022-10-16T03:25:06;7.30;;;2.63;;
10212;SDS011;5150;51.400;6.692;2022-10-16T03:28:31;4.32;;;2.58;;
10212;SDS011;5150;51.400;6.692;2022-10-16T03:31:54;4.05;;;2.38;;
10212;SDS011;5150;51.400;6.692;2022-10-16T03:35:17;4.55;;;2.20;;
10212;SDS011;5150;51.400;6.692;2022-10-16T03:38:40;4.70;;;2.40;;
10212;SDS011;5150;51.400;6.692;2022-10-16T03:42:03;5.57;;;2.00;;
10212;SDS011;5150;51.400;6.692;2022-10-16T03:45:27;4.30;;;2.20;;
10212;SDS011;5150;51.400;6.692;2022-10-16T03:48:50;9.05;;;2.90;;
10212;SDS011;5150;51.400;6.692;2022-10-16T03:52:13;4.95;;;2.65;;
10212;SDS011;5150;51.400;6.692;2022-10-16T03:55:36;2.40;;;2.20;;
10212;SDS011;5150;51.400;6.692;2022-10-16T03:58:59;8.00;;;3.05;;
10212;SDS011;5150;51.400;6.692;2022-10-16T04:02:23;2.60;;;2.30;;
10212;SDS011;5150;51.400;6.692;2022-10-16T04:05:46;3.60;;;2.00;;
10212;SDS011;5150;51.400;6.692;2022-10-16T04:09:09;6.07;;;2.95;;
10212;SDS011;5150;51.400;6.692;2022-10-16T04:12:32;5.28;;;2.47;;
10212;SDS011;5150;51.400;6.692;2022-10-16T04:15:55;5.13;;;2.42;;
10212;SDS011;5150;51.400;6.692;2022-10-16T04:19:20;5.30;;;2.58;;
10212;SDS011;5150;51.400;6.692;2022-10-16T04:22:42;3.60;;;2.42;;
10212;SDS011;5150;51.400;6.692;2022-10-16T04:26:05;4.82;;;2.30;;
10212;SDS011;5150;51.400;6.692;2022-10-16T04:29:28;8.13;;;2.60;;
10212;SDS011;5150;51.400;6.692;2022-10-16T04:32:51;5.50;;;2.75;;
10212;SDS011;5150;51.400;6.692;2022-10-16T04:36:16;6.68;;;2.35;;
10212;SDS011;5150;51.400;6.692;2022-10-16T04:39:39;6.40;;;3.55;;
10212;SDS011;5150;51.400;6.692;2022-10-16T04:43:02;8.05;;;2.22;;
10212;SDS011;5150;51.400;6.692;2022-10-16T04:46:25;6.38;;;2.30;;
10212;SDS011;5150;51.400;6.692;2022-10-16T04:49:48;5.20;;;2.38;;
10212;SDS011;5150;51.400;6.692;2022-10-16T04:53:12;5.97;;;2.95;;
10212;SDS011;5150;51.400;6.692;2022-10-16T04:56:36;9.52;;;2.25;;
10212;SDS011;5150;51.400;6.692;2022-10-16T05:00:05;5.10;;;1.80;;
10212;SDS011;5150;51.400;6.692;2022-10-16T05:03:29;5.35;;;2.80;;
10212;SDS011;5150;51.400;6.692;2022-10-16T05:06:52;7.72;;;2.95;;
10212;SDS011;5150;51.400;6.692;2022-10-16T05:10:16;8.60;;;2.53;;
10212;SDS011;5150;51.400;6.692;2022-10-16T05:13:39;5.22;;;2.78;;
10212;SDS011;5150;51.400;6.692;2022-10-16T05:17:02;5.47;;;2.50;;
10212;SDS011;5150;51.400;6.692;2022-10-16T05:20:25;7.55;;;2.80;;
10212;SDS011;5150;51.400;6.692;2022-10-16T05:23:48;4.38;;;2.35;;
10212;SDS011;5150;51.400;6.692;2022-10-16T05:27:12;3.53;;;2.40;;
10212;SDS011;5150;51.400;6.692;2022-10-16T05:30:40;5.82;;;2.80;;
10212;SDS011;5150;51.400;6.692;2022-10-16T05:34:03;6.00;;;2.42;;
10212;SDS011;5150;51.400;6.692;2022-10-16T05:37:26;7.40;;;2.20;;
10212;SDS011;5150;51.400;6.692;2022-10-16T05:40:50;9.55;;;2.75;;
10212;SDS011;5150;51.400;6.692;2022-10-16T05:44:15;6.07;;;2.20;;
10212;SDS011;5150;51.400;6.692;2022-10-16T05:47:38;11.10;;;2.72;;
10212;SDS011;5150;51.400;6.692;2022-10-16T05:51:02;3.55;;;2.25;;
10212;SDS011;5150;51.400;6.692;2022-10-16T05:54:28;4.53;;;2.08;;
10212;SDS011;5150;51.400;6.692;2022-10-16T05:57:53;8.57;;;2.35;;
10212;SDS011;5150;51.400;6.692;2022-10-16T06:01:19;2.20;;;1.65;;
10212;SDS011;5150;51.400;6.692;2022-10-16T06:04:45;3.33;;;2.00;;
10212;SDS011;5150;51.400;6.692;2022-10-16T06:08:08;5.40;;;2.42;;
10212;SDS011;5150;51.400;6.692;2022-10-16T06:11:31;4.80;;;2.05;;
10212;SDS011;5150;51.400;6.692;2022-10-16T06:14:55;3.53;;;2.20;;
10212;SDS011;5150;51.400;6.692;2022-10-16T06:18:19;3.10;;;1.90;;
10212;SDS011;5150;51.400;6.692;2022-10-16T06:21:42;1.75;;;1.58;;
10212;SDS011;5150;51.400;6.692;2022-10-16T06:25:05;4.82;;;2.13;;
10212;SDS011;5150;51.400;6.692;2022-10-16T06:28:29;6.63;;;2.80;;
10212;SDS011;5150;51.400;6.692;2022-10-16T06:31:52;2.97;;;2.10;;
10212;SDS011;5150;51.400;6.692;2022-10-16T06:35:16;4.85;;;2.13;;
10212;SDS011;5150;51.400;6.692;2022-10-16T06:38:39;4.20;;;2.45;;
10212;SDS011;5150;51.400;6.692;2022-10-16T06:42:03;6.30;;;2.25;;
10212;SDS011;5150;51.400;6.692;2022-10-16T06:45:29;4.25;;;2.50;;
10212;SDS011;5150;51.400;6.692;2022-10-16T06:48:52;2.58;;;1.77;;
10212;SDS011;5150;51.400;6.692;2022-10-16T06:52:17;4.85;;;2.05;;
10212;SDS011;5150;51.400;6.692;2022-10-16T06:55:40;6.63;;;2.55;;
10212;SDS011;5150;51.400;6.692;2022-10-16T06:59:03;2.90;;;2.60;;
10212;SDS011;5150;51.400;6.692;2022-10-16T07:02:26;5.07;;;2.20;;
10212;SDS011;5150;51.400;6.692;2022-10-16T07:05:49;1.98;;;1.77;;
10212;SDS011;5150;51.400;6.692;2022-10-16T07:09:14;4.53;;;1.83;;
10212;SDS011;5150;51.400;6.692;2022-10-16T07:12:37;3.60;;;1.92;;
10212;SDS011;5150;51.400;6.692;2022-10-16T07:16:03;3.20;;;1.80;;
10212;SDS011;5150;51.400;6.692;2022-10-16T07:19:27;4.80;;;2.05;;
10212;SDS011;5150;51.400;6.692;2022-10-16T07:22:54;5.65;;;1.80;;
10212;SDS011;5150;51.400;6.692;2022-10-16T07:26:19;3.72;;;2.20;;
10212;SDS011;5150;51.400;6.692;2022-10-16T07:29:42;2.00;;;1.33;;
10212;SDS011;5150;51.400;6.692;2022-10-16T07:33:05;4.53;;;1.88;;
10212;SDS011;5150;51.400;6.692;2022-10-16T07:36:28;4.55;;;2.30;;
10212;SDS011;5150;51.400;6.692;2022-10-16T07:39:51;3.85;;;2.10;;
10212;SDS011;5150;51.400;6.692;2022-10-16T07:43:15;2.50;;;2.08;;
10212;SDS011;5150;51.400;6.692;2022-10-16T07:46:38;5.18;;;2.60;;
10212;SDS011;5150;51.400;6.692;2022-10-16T07:50:01;3.85;;;2.30;;
10212;SDS011;5150;51.400;6.692;2022-10-16T07:53:25;3.70;;;2.05;;
10212;SDS011;5150;51.400;6.692;2022-10-16T07:56:48;10.43;;;2.78;;
10212;SDS011;5150;51.400;6.692;2022-10-16T08:00:13;4.78;;;2.28;;
10212;SDS011;5150;51.400;6.692;2022-10-16T08:03:36;4.47;;;2.30;;
10212;SDS011;5150;51.400;6.692;2022-10-16T08:06:59;3.67;;;2.35;;
10212;SDS011;5150;51.400;6.692;2022-10-16T08:10:23;4.53;;;2.22;;
10212;SDS011;5150;51.400;6.692;2022-10-16T08:13:47;3.72;;;2.10;;
10212;SDS011;5150;51.400;6.692;2022-10-16T08:17:11;6.95;;;2.30;;
10212;SDS011;5150;51.400;6.692;2022-10-16T08:20:36;4.05;;;1.90;;
10212;SDS011;5150;51.400;6.692;2022-10-16T08:23:59;5.28;;;2.33;;
10212;SDS011;5150;51.400;6.692;2022-10-16T08:27:22;4.28;;;2.25;;
10212;SDS011;5150;51.400;6.692;2022-10-16T08:30:45;9.15;;;2.60;;
10212;SDS011;5150;51.400;6.692;2022-10-16T08:34:10;6.95;;;2.10;;
10212;SDS011;5150;51.400;6.692;2022-10-16T08:37:33;8.95;;;2.42;;
10212;SDS011;5150;51.400;6.692;2022-10-16T08:40:57;3.63;;;2.10;;
10212;SDS011;5150;51.400;6.692;2022-10-16T08:44:36;4.95;;;2.42;;
10212;SDS011;5150;51.400;6.692;2022-10-16T08:48:18;6.00;;;1.90;;
10212;SDS011;5150;51.400;6.692;2022-10-16T08:51:46;8.68;;;2.63;;
10212;SDS011;5150;51.400;6.692;2022-10-16T08:55:17;7.57;;;2.22;;
10212;SDS011;5150;51.400;6.692;2022-10-16T08:58:53;10.77;;;3.33;;
10212;SDS011;5150;51.400;6.692;2022-10-16T09:02:24;5.30;;;2.20;;
10212;SDS011;5150;51.400;6.692;2022-10-16T09:05:57;5.88;;;2.53;;
10212;SDS011;5150;51.400;6.692;2022-10-16T09:09:38;11.15;;;2.30;;
10212;SDS011;5150;51.400;6.692;2022-10-16T09:13:17;7.00;;;2.40;;
10212;SDS011;5150;51.400;6.692;2022-10-16T09:16:46;3.17;;;1.88;;
10212;SDS011;5150;51.400;6.692;2022-10-16T09:20:19;10.98;;;2.60;;
10212;SDS011;5150;51.400;6.692;2022-10-16T09:23:54;7.10;;;2.28;;
10212;SDS011;5150;51.400;6.692;2022-10-16T09:27:22;8.23;;;2.88;;
10212;SDS011;5150;51.400;6.692;2022-10-16T09:30:46;11.98;;;2.58;;
10212;SDS011;5150;51.400;6.692;2022-10-16T09:34:13;3.53;;;1.52;;
10212;SDS011;5150;51.400;6.692;2022-10-16T09:37:44;5.97;;;2.05;;
10212;SDS011;5150;51.400;6.692;2022-10-16T09:41:13;26.73;;;2.78;;
10212;SDS011;5150;51.400;6.692;2022-10-16T09:44:41;9.15;;;2.17;;
10212;SDS011;5150;51.400;6.692;2022-10-16T09:48:10;9.07;;;2.90;;
10212;SDS011;5150;51.400;6.692;2022-10-16T09:51:34;4.78;;;2.55;;
10212;SDS011;5150;51.400;6.692;2022-10-16T09:54:59;7.00;;;2.78;;
10212;SDS011;5150;51.400;6.692;2022-10-16T09:58:23;5.10;;;2.30;;
10212;SDS011;5150;51.400;6.692;2022-10-16T10:01:48;6.40;;;2.83;;
10212;SDS011;5150;51.400;6.692;2022-10-16T10:05:19;6.85;;;1.95;;
10212;SDS011;5150;51.400;6.692;2022-10-16T10:08:54;5.28;;;2.33;;
10212;SDS011;5150;51.400;6.692;2022-10-16T10:12:19;7.65;;;2.00;;
10212;SDS011;5150;51.400;6.692;2022-10-16T10:15:47;6.18;;;2.20;;
10212;SDS011;5150;51.400;6.692;2022-10-16T10:19:14;8.00;;;2.53;;
10212;SDS011;5150;51.400;6.692;2022-10-16T10:22:39;7.68;;;2.15;;
10212;SDS011;5150;51.400;6.692;2022-10-16T10:26:05;7.35;;;2.17;;
10212;SDS011;5150;51.400;6.692;2022-10-16T10:29:36;7.75;;;1.90;;
10212;SDS011;5150;51.400;6.692;2022-10-16T10:33:12;6.22;;;2.78;;
10212;SDS011;5150;51.400;6.692;2022-10-16T10:36:44;9.23;;;2.58;;
10212;SDS011;5150;51.400;6.692;2022-10-16T10:40:16;8.10;;;1.95;;
10212;SDS011;5150;51.400;6.692;2022-10-16T10:43:54;5.82;;;2.40;;
10212;SDS011;5150;51.400;6.692;2022-10-16T10:47:26;10.15;;;2.60;;
10212;SDS011;5150;51.400;6.692;2022-10-16T10:50:59;6.22;;;2.28;;
10212;SDS011;5150;51.400;6.692;2022-10-16T10:54:28;6.22;;;2.55;;
10212;SDS011;5150;51.400;6.692;2022-10-16T10:58:06;8.80;;;2.97;;
10212;SDS011;5150;51.400;6.692;2022-10-16T11:01:47;7.90;;;2.30;;
10212;SDS011;5150;51.400;6.692;2022-10-16T11:05:23;14.98;;;3.40;;
10212;SDS011;5150;51.400;6.692;2022-10-16T11:08:55;11.27;;;2.38;;
10212;SDS011;5150;51.400;6.692;2022-10-16T11:12:24;10.00;;;2.78;;
10212;SDS011;5150;51.400;6.692;2022-10-16T11:15:53;30.48;;;4.47;;
10212;SDS011;5150;51.400;6.692;2022-10-16T11:19:21;15.45;;;3.58;;
10212;SDS011;5150;51.400;6.692;2022-10-16T11:22:50;12.48;;;2.80;;
10212;SDS011;5150;51.400;6.692;2022-10-16T11:26:18;13.65;;;3.00;;
10212;SDS011;5150;51.400;6.692;2022-10-16T11:29:47;12.85;;;3.10;;
10212;SDS011;5150;51.400;6.692;2022-10-16T11:33:22;6.32;;;2.50;;
10212;SDS011;5150;51.400;6.692;2022-10-16T11:36:53;10.27;;;2.83;;
10212;SDS011;5150;51.400;6.692;2022-10-16T11:40:22;9.60;;;3.25;;
10212;SDS011;5150;51.400;6.692;2022-10-16T11:43:52;15.40;;;2.75;;
10212;SDS011;5150;51.400;6.692;2022-10-16T11:47:33;10.10;;;3.03;;
10212;SDS011;5150;51.400;6.692;2022-10-16T11:51:19;18.30;;;3.72;;
10212;SDS011;5150;51.400;6.692;2022-10-16T11:54:47;9.48;;;3.22;;
10212;SDS011;5150;51.400;6.692;2022-10-16T11:58:16;10.00;;;2.75;;
10212;SDS011;5150;51.400;6.692;2022-10-16T12:01:47;10.90;;;2.30;;
10212;SDS011;5150;51.400;6.692;2022-10-16T12:05:19;8.98;;;2.75;;
10212;SDS011;5150;51.400;6.692;2022-10-16T12:08:47;7.38;;;2.80;;
10212;SDS011;5150;51.400;6.692;2022-10-16T12:12:24;11.45;;;3.30;;
10212;SDS011;5150;51.400;6.692;2022-10-16T12:15:51;8.02;;;2.55;;
10212;SDS011;5150;51.400;6.692;2022-10-16T12:19:26;10.50;;;2.90;;
10212;SDS011;5150;51.400;6.692;2022-10-16T12:22:52;8.98;;;3.22;;
10212;SDS011;5150;51.400;6.692;2022-10-16T12:26:23;7.80;;;2.20;;
10212;SDS011;5150;51.400;6.692;2022-10-16T12:29:48;8.95;;;2.45;;
10212;SDS011;5150;51.400;6.692;2022-10-16T12:33:19;10.27;;;2.80;;
10212;SDS011;5150;51.400;6.692;2022-10-16T12:36:44;7.18;;;2.08;;
10212;SDS011;5150;51.400;6.692;2022-10-16T12:40:12;8.77;;;2.40;;
10212;SDS011;5150;51.400;6.692;2022-10-16T12:43:39;8.48;;;2.10;;
10212;SDS011;5150;51.400;6.692;2022-10-16T12:47:04;5.78;;;2.08;;
10212;SDS011;5150;51.400;6.692;2022-10-16T12:50:41;12.23;;;3.13;;
10212;SDS011;5150;51.400;6.692;2022-10-16T12:54:04;7.28;;;2.45;;
10212;SDS011;5150;51.400;6.692;2022-10-16T12:57:39;6.10;;;2.60;;
10212;SDS011;5150;51.400;6.692;2022-10-16T13:01:25;7.97;;;2.17;;
10212;SDS011;5150;51.400;6.692;2022-10-16T13:05:10;11.35;;;2.45;;
10212;SDS011;5150;51.400;6.692;2022-10-16T13:08:53;6.47;;;2.13;;
10212;SDS011;5150;51.400;6.692;2022-10-16T13:12:36;7.55;;;2.40;;
10212;SDS011;5150;51.400;6.692;2022-10-16T13:16:18;5.25;;;1.95;;
10212;SDS011;5150;51.400;6.692;2022-10-16T13:19:47;4.88;;;2.33;;
10212;SDS011;5150;51.400;6.692;2022-10-16T13:23:21;4.55;;;1.70;;
10212;SDS011;5150;51.400;6.692;2022-10-16T13:26:49;4.45;;;2.10;;
10212;SDS011;5150;51.400;6.692;2022-10-16T13:30:19;7.93;;;2.10;;
10212;SDS011;5150;51.400;6.692;2022-10-16T13:33:51;5.90;;;1.85;;
10212;SDS011;5150;51.400;6.692;2022-10-16T13:37:16;2.78;;;1.50;;
10212;SDS011;5150;51.400;6.692;2022-10-16T13:40:54;5.32;;;1.67;;
10212;SDS011;5150;51.400;6.692;2022-10-16T13:44:19;8.82;;;2.08;;
10212;SDS011;5150;51.400;6.692;2022-10-16T13:47:44;4.28;;;1.50;;
10212;SDS011;5150;51.400;6.692;2022-10-16T13:51:11;4.85;;;1.88;;
10212;SDS011;5150;51.400;6.692;2022-10-16T13:54:35;11.80;;;1.90;;
10212;SDS011;5150;51.400;6.692;2022-10-16T13:58:04;4.25;;;1.70;;
10212;SDS011;5150;51.400;6.692;2022-10-16T14:01:28;2.75;;;1.67;;
10212;SDS011;5150;51.400;6.692;2022-10-16T14:04:55;3.00;;;1.58;;
10212;SDS011;5150;51.400;6.692;2022-10-16T14:08:19;4.60;;;1.60;;
10212;SDS011;5150;51.400;6.692;2022-10-16T14:11:44;1.55;;;1.33;;
10212;SDS011;5150;51.400;6.692;2022-10-16T14:15:15;2.58;;;1.67;;
10212;SDS011;5150;51.400;6.692;2022-10-16T14:18:40;3.60;;;1.20;;
10212;SDS011;5150;51.400;6.692;2022-10-16T14:22:20;5.53;;;1.63;;
10212;SDS011;5150;51.400;6.692;2022-10-16T14:25:50;2.75;;;1.60;;
10212;SDS011;5150;51.400;6.692;2022-10-16T14:29:14;6.50;;;1.70;;
10212;SDS011;5150;51.400;6.692;2022-10-16T14:32:41;3.40;;;1.42;;
10212;SDS011;5150;51.400;6.692;2022-10-16T14:36:15;4.45;;;1.67;;
10212;SDS011;5150;51.400;6.692;2022-10-16T14:39:41;2.50;;;1.98;;
10212;SDS011;5150;51.400;6.692;2022-10-16T14:43:04;6.05;;;1.48;;
10212;SDS011;5150;51.400;6.692;2022-10-16T14:46:28;4.20;;;1.88;;
10212;SDS011;5150;51.400;6.692;2022-10-16T14:49:54;3.85;;;1.80;;
10212;SDS011;5150;51.400;6.692;2022-10-16T14:53:20;4.47;;;1.77;;
10212;SDS011;5150;51.400;6.692;2022-10-16T14:56:46;4.05;;;1.48;;
10212;SDS011;5150;51.400;6.692;2022-10-16T15:00:15;2.95;;;1.33;;
10212;SDS011;5150;51.400;6.692;2022-10-16T15:03:40;5.70;;;1.40;;
10212;SDS011;5150;51.400;6.692;2022-10-16T15:07:03;9.55;;;1.85;;
10212;SDS011;5150;51.400;6.692;2022-10-16T15:10:27;3.03;;;1.75;;
10212;SDS011;5150;51.400;6.692;2022-10-16T15:13:52;2.80;;;1.60;;
10212;SDS011;5150;51.400;6.692;2022-10-16T15:17:15;3.92;;;1.80;;
10212;SDS011;5150;51.400;6.692;2022-10-16T15:20:42;5.22;;;2.17;;
10212;SDS011;5150;51.400;6.692;2022-10-16T15:24:08;5.80;;;1.98;;
10212;SDS011;5150;51.400;6.692;2022-10-16T15:27:39;5.55;;;1.77;;
10212;SDS011;5150;51.400;6.692;2022-10-16T15:31:04;3.60;;;1.85;;
10212;SDS011;5150;51.400;6.692;2022-10-16T15:34:27;4.57;;;1.50;;
10212;SDS011;5150;51.400;6.692;2022-10-16T15:37:50;3.08;;;1.65;;
10212;SDS011;5150;51.400;6.692;2022-10-16T15:41:13;2.05;;;1.40;;
10212;SDS011;5150;51.400;6.692;2022-10-16T15:44:36;5.68;;;1.45;;
10212;SDS011;5150;51.400;6.692;2022-10-16T15:48:00;4.30;;;1.35;;
10212;SDS011;5150;51.400;6.692;2022-10-16T15:51:24;6.55;;;1.55;;
10212;SDS011;5150;51.400;6.692;2022-10-16T15:54:50;3.15;;;1.70;;
10212;SDS011;5150;51.400;6.692;2022-10-16T15:58:15;2.92;;;1.65;;
10212;SDS011;5150;51.400;6.692;2022-10-16T16:01:39;3.95;;;1.48;;
10212;SDS011;5150;51.400;6.692;2022-10-16T16:05:04;3.92;;;1.92;;
10212;SDS011;5150;51.400;6.692;2022-10-16T16:08:29;2.55;;;1.20;;
10212;SDS011;5150;51.400;6.692;2022-10-16T16:11:52;2.15;;;1.30;;
10212;SDS011;5150;51.400;6.692;2022-10-16T16:15:15;3.58;;;1.92;;
10212;SDS011;5150;51.400;6.692;2022-10-16T16:18:38;2.95;;;1.55;;
10212;SDS011;5150;51.400;6.692;2022-10-16T16:22:03;4.60;;;1.30;;
10212;SDS011;5150;51.400;6.692;2022-10-16T16:25:32;2.78;;;1.25;;
10212;SDS011;5150;51.400;6.692;2022-10-16T16:28:57;3.28;;;1.35;;
10212;SDS011;5150;51.400;6.692;2022-10-16T16:32:20;2.13;;;1.63;;
10212;SDS011;5150;51.400;6.692;2022-10-16T16:35:44;5.20;;;1.85;;
10212;SDS011;5150;51.400;6.692;2022-10-16T16:39:09;6.40;;;1.67;;
10212;SDS011;5150;51.400;6.692;2022-10-16T16:42:32;5.03;;;1.75;;
10212;SDS011;5150;51.400;6.692;2022-10-16T16:45:56;2.42;;;1.38;;
10212;SDS011;5150;51.400;6.692;2022-10-16T16:49:23;5.70;;;2.08;;
10212;SDS011;5150;51.400;6.692;2022-10-16T16:52:46;4.63;;;2.10;;
10212;SDS011;5150;51.400;6.692;2022-10-16T16:56:11;5.35;;;2.15;;
10212;SDS011;5150;51.400;6.692;2022-10-16T16:59:35;6.68;;;1.67;;
10212;SDS011;5150;51.400;6.692;2022-10-16T17:02:58;3.92;;;1.85;;
10212;SDS011;5150;51.400;6.692;2022-10-16T17:06:25;7.32;;;2.10;;
10212;SDS011;5150;51.400;6.692;2022-10-16T17:09:51;7.53;;;2.30;;
10212;SDS011;5150;51.400;6.692;2022-10-16T17:13:16;6.55;;;2.75;;
10212;SDS011;5150;51.400;6.692;2022-10-16T17:16:39;9.57;;;2.80;;
10212;SDS011;5150;51.400;6.692;2022-10-16T17:20:05;9.02;;;2.97;;
10212;SDS011;5150;51.400;6.692;2022-10-16T17:23:30;7.78;;;2.58;;
10212;SDS011;5150;51.400;6.692;2022-10-16T17:26:53;7.22;;;2.42;;
10212;SDS011;5150;51.400;6.692;2022-10-16T17:30:18;13.43;;;3.78;;
10212;SDS011;5150;51.400;6.692;2022-10-16T17:33:41;7.97;;;3.25;;
10212;SDS011;5150;51.400;6.692;2022-10-16T17:37:04;12.05;;;2.95;;
10212;SDS011;5150;51.400;6.692;2022-10-16T17:40:27;14.50;;;3.50;;
10212;SDS011;5150;51.400;6.692;2022-10-16T17:43:50;9.07;;;3.70;;
10212;SDS011;5150;51.400;6.692;2022-10-16T17:47:15;8.35;;;3.13;;
10212;SDS011;5150;51.400;6.692;2022-10-16T17:50:38;11.50;;;3.85;;
10212;SDS011;5150;51.400;6.692;2022-10-16T17:54:02;9.98;;;3.03;;
10212;SDS011;5150;51.400;6.692;2022-10-16T17:57:25;9.30;;;3.35;;
10212;SDS011;5150;51.400;6.692;2022-10-16T18:00:48;13.75;;;3.95;;
10212;SDS011;5150;51.400;6.692;2022-10-16T18:04:13;7.43;;;3.85;;
10212;SDS011;5150;51.400;6.692;2022-10-16T18:07:37;13.07;;;3.70;;
10212;SDS011;5150;51.400;6.692;2022-10-16T18:11:02;10.27;;;3.22;;
10212;SDS011;5150;51.400;6.692;2022-10-16T18:14:26;13.75;;;4.65;;
10212;SDS011;5150;51.400;6.692;2022-10-16T18:17:49;17.50;;;3.65;;
10212;SDS011;5150;51.400;6.692;2022-10-16T18:21:15;11.35;;;3.75;;
10212;SDS011;5150;51.400;6.692;2022-10-16T18:24:39;7.15;;;3.20;;
10212;SDS011;5150;51.400;6.692;2022-10-16T18:28:02;9.35;;;3.72;;
10212;SDS011;5150;51.400;6.692;2022-10-16T18:31:27;12.07;;;4.40;;
10212;SDS011;5150;51.400;6.692;2022-10-16T18:34:50;9.63;;;3.92;;
10212;SDS011;5150;51.400;6.692;2022-10-16T18:38:15;12.35;;;4.25;;
10212;SDS011;5150;51.400;6.692;2022-10-16T18:41:39;7.82;;;3.50;;
10212;SDS011;5150;51.400;6.692;2022-10-16T18:45:05;11.18;;;3.83;;
10212;SDS011;5150;51.400;6.692;2022-10-16T18:48:29;10.15;;;3.90;;
10212;SDS011;5150;51.400;6.692;2022-10-16T18:51:53;8.23;;;3.60;;
10212;SDS011;5150;51.400;6.692;2022-10-16T18:55:19;6.75;;;3.33;;
10212;SDS011;5150;51.400;6.692;2022-10-16T18:58:46;9.48;;;3.72;;
10212;SDS011;5150;51.400;6.692;2022-10-16T19:02:10;6.30;;;3.92;;
10212;SDS011;5150;51.400;6.692;2022-10-16T19:05:34;10.15;;;4.00;;
10212;SDS011;5150;51.400;6.692;2022-10-16T19:08:57;9.68;;;4.78;;
10212;SDS011;5150;51.400;6.692;2022-10-16T19:12:21;10.50;;;3.95;;
10212;SDS011;5150;51.400;6.692;2022-10-16T19:15:44;12.65;;;4.20;;
10212;SDS011;5150;51.400;6.692;2022-10-16T19:19:18;12.32;;;3.85;;
10212;SDS011;5150;51.400;6.692;2022-10-16T19:22:43;9.35;;;4.22;;
10212;SDS011;5150;51.400;6.692;2022-10-16T19:26:14;14.75;;;4.40;;
10212;SDS011;5150;51.400;6.692;2022-10-16T19:29:39;18.55;;;5.75;;
10212;SDS011;5150;51.400;6.692;2022-10-16T19:33:03;8.88;;;3.58;;
10212;SDS011;5150;51.400;6.692;2022-10-16T19:36:27;14.43;;;4.22;;
10212;SDS011;5150;51.400;6.692;2022-10-16T19:39:51;10.93;;;4.20;;
10212;SDS011;5150;51.400;6.692;2022-10-16T19:43:14;11.52;;;5.03;;
10212;SDS011;5150;51.400;6.692;2022-10-16T19:46:38;12.88;;;4.80;;
10212;SDS011;5150;51.400;6.692;2022-10-16T19:50:02;12.82;;;4.70;;
10212;SDS011;5150;51.400;6.692;2022-10-16T19:53:26;12.25;;;4.75;;
10212;SDS011;5150;51.400;6.692;2022-10-16T19:56:50;11.00;;;4.57;;
10212;SDS011;5150;51.400;6.692;2022-10-16T20:00:13;12.93;;;4.88;;
10212;SDS011;5150;51.400;6.692;2022-10-16T20:03:39;10.98;;;4.07;;
10212;SDS011;5150;51.400;6.692;2022-10-16T20:07:06;12.45;;;4.60;;
10212;SDS011;5150;51.400;6.692;2022-10-16T20:10:30;12.07;;;4.40;;
10212;SDS011;5150;51.400;6.692;2022-10-16T20:13:55;8.98;;;4.78;;
10212;SDS011;5150;51.400;6.692;2022-10-16T20:17:19;12.38;;;4.45;;
10212;SDS011;5150;51.400;6.692;2022-10-16T20:20:44;10.05;;;4.10;;
10212;SDS011;5150;51.400;6.692;2022-10-16T20:24:08;9.68;;;4.47;;
10212;SDS011;5150;51.400;6.692;2022-10-16T20:27:33;14.30;;;5.43;;
10212;SDS011;5150;51.400;6.692;2022-10-16T20:30:56;35.17;;;7.28;;
10212;SDS011;5150;51.400;6.692;2022-10-16T20:34:19;24.95;;;7.15;;
10212;SDS011;5150;51.400;6.692;2022-10-16T20:37:43;12.50;;;4.50;;
10212;SDS011;5150;51.400;6.692;2022-10-16T20:41:09;16.92;;;4.47;;
10212;SDS011;5150;51.400;6.692;2022-10-16T20:44:32;18.83;;;6.22;;
10212;SDS011;5150;51.400;6.692;2022-10-16T20:47:56;31.98;;;8.73;;
10212;SDS011;5150;51.400;6.692;2022-10-16T20:51:20;34.38;;;7.40;;
10212;SDS011;5150;51.400;6.692;2022-10-16T20:54:46;23.30;;;5.78;;
10212;SDS011;5150;51.400;6.692;2022-10-16T20:58:09;18.50;;;6.10;;